PABI/DJN METAR and TAF weather

Enter ICAO airport designator
Station Type Date Time Source
PABI METAR 2020/04/06 10:53 UTC NOAA

PABI 061053Z AUTO 22007KT 10SM OVC070 M07/M12 A2961 RMK AO2 SLP056 T10721117 TSNO


Station Type Date Time Source
PABI Decoded METAR 2020/04/06 10:53 UTC NOAA

ALLEN ARMY AIRFIELD, AK, United States (PABI) 64-00N 145-43W 391M
Apr 06, 2020 - 06:53 AM EDT / 2020.04.06 1053 UTC
Wind: from the SW (220 degrees) at 8 MPH (7 KT):0
Visibility: 10 mile(s):0
Sky conditions: overcast
Temperature: 19.0 F (-7.2 C)
Windchill: 8 F (-13 C):1
Dew Point: 10.9 F (-11.7 C)
Relative Humidity: 70%
Pressure (altimeter): 29.61 in. Hg (1002 hPa)
ob: PABI 061053Z AUTO 22007KT 10SM OVC070 M07/M12 A2961 RMK AO2 SLP056 T10721117 TSNO
cycle: 11

Station Type Date Time Source
PABI TAF 2020/04/04 06:06 UTC NOAA

TAF PABI 040600Z 0406/0512 26006KT 9999 OVC020 610208 QNH2999INS
BECMG 0410/0411 VRB06KT 9999 BKN010 610109 QNH2995INS
BECMG 0419/0420 23007KT 9999 SCT030 QNH2951INS TX00/0503Z TNM07/0412Z FOR MIL USE ONLY LAST NO
AMDS AFT 0406 NEXT 0614

Example: see airport list